Latest Weather Observations for Tewantin

IDQ60801

Issued at 1:02 pm EST Saturday 18 April 2015 (issued every 30 minutes, with the page automatically refreshed every 10 minutes)

About weather observations | Map of weather stations | Latest weather observations for QLD | Other Formats
Station Details ID: 040908 Name: TEWANTIN RSL PARK Lat: -26.39 Lon: 153.04 Height: 6.4 m
Data from the previous 72 hours. | See also: Recent months at Tewantin
Date/Time
EST
Temp
°C
App
Temp
°C
Dew
Point
Rel
Hum
%
Delta-T
°C
Wind Press
QNH
hPa
Press
MSL
hPa
Rain
since 9 am
mm
Dir
 
Spd
km/h
Gust
km/h
Spd
kts
Gust
kts
18/01:00pm 26.9 27.2 19.5 64 4.8 NE 17 28 9 15 1019.5 1019.5 0.2
18/12:30pm 26.7 26.8 19.1 63 4.9 NE 17 26 9 14 1020.0 1020.0 0.2
18/12:00pm 26.7 26.8 19.1 63 4.9 NE 17 26 9 14 1020.4 1020.4 0.2
18/11:30am 26.6 26.6 19.7 66 4.5 NE 19 28 10 15 1021.0 1021.0 0.2
18/11:00am 27.0 27.8 19.9 65 4.6 ENE 15 24 8 13 1021.4 1021.4 0.2
18/10:30am 26.6 26.7 19.2 64 4.8 ENE 17 26 9 14 1021.9 1021.9 0.2
18/10:00am 26.6 26.7 19.2 64 4.7 NE 17 24 9 13 1022.1 1022.1 0.0
18/09:30am 25.6 26.7 19.7 70 3.8 ENE 13 20 7 11 1022.3 1022.3 0.0
18/09:00am 25.6 26.6 19.5 69 3.9 ENE 13 20 7 11 1022.2 1022.2 2.2
18/08:30am 24.0 25.5 18.9 73 3.2 NE 9 13 5 7 1022.1 1022.1 2.2
18/08:00am 22.0 25.2 21.2 95 0.5 SW 6 9 3 5 1022.1 1022.1 2.2
18/07:30am 21.3 24.2 20.6 96 0.5 WSW 6 7 3 4 1021.7 1021.7 2.2
18/07:00am 20.6 23.8 20.4 99 0.1 W 4 9 2 5 1021.5 1021.5 2.2
18/06:30am 20.2 22.8 20.0 99 0.1 SSE 6 9 3 5 1021.4 1021.4 2.2
18/06:00am 20.0 21.9 19.8 99 0.1 SSW 9 11 5 6 1021.0 1021.0 2.2
18/05:30am 19.9 22.1 19.7 99 0.1 SSW 7 11 4 6 1020.9 1020.9 2.2
18/05:00am 19.9 22.3 19.7 99 0.1 S 6 11 3 6 1020.6 1020.6 2.2
18/04:30am 19.9 22.7 19.7 99 0.1 SSW 4 7 2 4 1020.7 1020.7 2.2
18/04:00am 20.2 23.2 20.0 99 0.1 SW 4 11 2 6 1020.7 1020.7 2.2
18/03:30am 20.3 22.9 20.1 99 0.1 W 6 11 3 6 1020.8 1020.8 2.0
18/03:00am 20.4 22.9 20.2 99 0.1 NW 7 13 4 7 1020.9 1020.9 1.8
18/02:30am 20.6 22.9 19.9 96 0.4 WNW 7 17 4 9 1021.1 1021.1 0.2
18/02:00am 20.9 22.4 19.7 93 0.8 NW 11 17 6 9 1021.1 1021.1 0.2
18/01:30am 21.2 23.2 18.8 86 1.5 SW 6 7 3 4 1021.2 1021.2 0.0
18/01:00am 21.1 22.8 19.4 90 1.1 SSW 9 9 5 5 1021.3 1021.3 0.0
18/12:30am 20.9 22.9 19.2 90 1.1 SSW 7 9 4 5 1021.5 1021.5 0.0
18/12:00am 20.8 22.6 19.5 92 0.8 SSW 9 13 5 7 1021.7 1021.7 0.0
 
Date/Time
EST
Temp
°C
App
Temp
°C
Dew
Point
Rel
Hum
%
Delta-T
°C
Wind Press
QNH
hPa
Press
MSL
hPa
Rain
since 9 am
mm
Dir
 
Spd
km/h
Gust
km/h
Spd
kts
Gust
kts
17/11:30pm 20.9 24.1 19.7 93 0.8 SSW 2 7 1 4 1022.0 1022.0 0.0
17/11:00pm 21.0 23.4 19.6 92 0.9 SW 6 7 3 4 1022.3 1022.3 0.0
17/10:30pm 21.4 24.1 19.5 89 1.2 SW 4 7 2 4 1022.2 1022.2 0.0
17/10:00pm 21.9 24.1 19.5 86 1.5 NNW 7 11 4 6 1022.3 1022.3 0.0
17/09:30pm 22.2 24.4 20.3 89 1.2 NNE 9 13 5 7 1022.4 1022.4 0.0
17/09:00pm 21.4 24.0 19.3 88 1.3 SSW 4 7 2 4 1022.2 1022.2 0.0
17/08:30pm 21.1 24.0 19.0 88 1.3 SSW 2 9 1 5 1022.2 1022.2 0.0
17/08:00pm 21.4 23.6 19.5 89 1.2 SW 7 9 4 5 1022.1 1022.1 0.0
17/07:30pm 21.9 24.8 19.8 88 1.3 SW 4 7 2 4 1021.8 1021.8 0.0
17/07:00pm 22.1 25.5 19.3 84 1.8 CALM 0 6 0 3 1021.5 1021.5 0.0
17/06:30pm 22.8 24.7 18.6 77 2.6 SSE 6 9 3 5 1021.4 1021.4 0.0
17/06:00pm 23.4 24.8 17.4 69 3.7 SSE 6 7 3 4 1020.9 1020.9 0.0
17/05:30pm 23.5 24.6 17.0 67 4.0 SE 7 11 4 6 1020.8 1020.8 0.0
17/05:00pm 23.8 24.4 16.8 65 4.3 E 9 15 5 8 1020.7 1020.7 0.0
17/04:30pm 24.1 25.0 17.6 67 4.0 E 9 15 5 8 1020.5 1020.5 0.0
17/04:00pm 24.6 24.3 17.3 64 4.5 E 15 20 8 11 1020.1 1020.1 0.0
17/03:30pm 24.6 24.4 16.6 61 4.9 E 13 20 7 11 1020.2 1020.2 0.0
17/03:00pm 25.3 24.8 17.0 60 5.1 E 15 24 8 13 1020.2 1020.2 0.0
17/02:30pm 24.9 24.3 16.6 60 5.1 E 15 26 8 14 1020.2 1020.2 0.0
17/02:00pm 24.9 24.9 17.1 62 4.8 ESE 13 20 7 11 1020.5 1020.5 0.0
17/01:30pm 25.5 25.7 17.7 62 4.9 ESE 13 20 7 11 1020.8 1020.8 0.0
17/01:00pm 25.3 25.1 17.5 62 4.9 E 15 20 8 11 1021.0 1021.0 0.0
17/12:30pm 25.4 25.2 16.8 59 5.3 E 13 19 7 10 1021.5 1021.5 0.0
17/12:00pm 25.9 26.5 18.6 64 4.6 ENE 13 24 7 13 1022.0 1022.0 0.0
17/11:30am 24.8 25.3 18.3 67 4.1 ESE 13 20 7 11 1022.6 1022.6 0.0
17/11:00am 25.3 25.6 18.7 67 4.2 ESE 15 20 8 11 1023.0 1023.0 0.0
17/10:30am 25.7 26.4 17.9 62 4.9 E 11 17 6 9 1023.3 1023.3 0.0
17/10:00am 24.6 26.8 20.3 77 2.8 SE 9 13 5 7 1023.7 1023.7 0.0
17/09:30am 23.8 25.6 18.7 73 3.2 ESE 7 13 4 7 1024.0 1024.0 0.0
17/09:00am 24.1 26.1 19.2 74 3.1 SE 7 13 4 7 1024.1 1024.1 0.6
17/08:30am 22.8 23.9 18.1 75 2.9 S 9 13 5 7 1024.1 1024.1 0.6
17/08:00am 21.8 23.3 19.0 84 1.8 SSE 9 11 5 6 1023.8 1023.8 0.6
17/07:30am 20.3 22.6 18.6 90 1.1 SSW 4 9 2 5 1023.6 1023.6 0.4
17/07:00am 20.0 21.7 18.5 91 0.9 S 7 13 4 7 1023.4 1023.4 0.4
17/06:30am 19.4 21.2 18.7 96 0.4 SSW 7 9 4 5 1023.2 1023.2 0.4
17/06:00am 18.8 20.4 17.8 94 0.6 S 6 9 3 5 1022.9 1022.9 0.4
17/05:30am 18.9 20.6 18.1 95 0.5 S 6 7 3 4 1022.7 1022.7 0.4
17/05:00am 19.1 20.9 18.3 95 0.5 SSW 6 9 3 5 1022.4 1022.4 0.4
17/04:30am 18.9 21.0 18.1 95 0.5 S 4 7 2 4 1022.2 1022.2 0.4
17/04:00am 19.0 20.7 18.0 94 0.6 S 6 7 3 4 1021.8 1021.8 0.4
17/03:30am 19.4 21.0 17.9 91 0.9 SSW 6 7 3 4 1021.8 1021.8 0.4
17/03:00am 19.9 21.3 18.6 92 0.8 SSW 9 13 5 7 1021.7 1021.7 0.4
17/02:30am 20.0 21.4 17.8 87 1.4 SSW 7 11 4 6 1021.8 1021.8 0.2
17/02:00am 20.0 21.4 17.8 87 1.3 SSW 7 9 4 5 1022.1 1022.1 0.2
17/01:30am 19.8 21.8 17.8 88 1.2 SSW 4 7 2 4 1022.4 1022.4 0.2
17/01:00am 20.0 21.1 18.0 88 1.2 SSW 9 11 5 6 1022.7 1022.7 0.2
17/12:30am 19.8 21.5 18.1 90 1.1 SSW 6 9 3 5 1023.0 1023.0 0.2
17/12:00am 20.2 21.9 18.0 87 1.4 SW 6 7 3 4 1023.2 1023.2 0.2
 
Date/Time
EST
Temp
°C
App
Temp
°C
Dew
Point
Rel
Hum
%
Delta-T
°C
Wind Press
QNH
hPa
Press
MSL
hPa
Rain
since 9 am
mm
Dir
 
Spd
km/h
Gust
km/h
Spd
kts
Gust
kts
16/11:30pm 20.4 23.1 17.8 85 1.6 CALM 0 0 0 0 1023.4 1023.4 0.2
16/11:00pm 20.8 22.5 18.0 84 1.7 SSW 6 7 3 4 1023.6 1023.6 0.2
16/10:30pm 21.1 23.0 18.5 85 1.6 SSW 6 9 3 5 1023.8 1023.8 0.2
16/10:00pm 20.9 23.0 18.1 84 1.7 SSW 4 7 2 4 1024.0 1024.0 0.2
16/09:30pm 20.8 23.0 18.4 86 1.5 S 4 7 2 4 1024.0 1024.0 0.2
16/09:00pm 20.9 22.6 18.1 84 1.7 SSW 6 9 3 5 1023.9 1023.9 0.2
16/08:30pm 21.3 23.4 18.1 82 2.0 SSW 4 9 2 5 1024.0 1024.0 0.2
16/08:00pm 21.3 23.7 17.9 81 2.1 SW 2 6 1 3 1023.8 1023.8 0.2
16/07:30pm 21.5 23.6 18.1 81 2.1 SW 4 9 2 5 1023.6 1023.6 0.2
16/07:00pm 22.0 23.8 18.2 79 2.4 SSW 6 9 3 5 1023.3 1023.3 0.2
16/06:30pm 22.6 24.4 18.4 77 2.6 SSW 6 9 3 5 1023.0 1023.0 0.2
16/06:00pm 22.9 24.3 17.8 73 3.2 SE 7 11 4 6 1022.7 1022.7 0.2
16/05:30pm 23.2 24.5 17.6 71 3.5 SE 7 11 4 6 1022.5 1022.5 0.2
16/05:00pm 23.7 24.7 17.7 69 3.7 SE 9 17 5 9 1022.5 1022.5 0.2
16/04:30pm 24.1 24.6 17.4 66 4.2 SE 11 17 6 9 1022.4 1022.4 0.2
16/04:00pm 24.3 24.3 17.3 65 4.3 ESE 13 19 7 10 1022.4 1022.4 0.2
16/03:30pm 24.3 24.3 17.3 65 4.3 ESE 13 17 7 9 1022.4 1022.4 0.2
16/03:00pm 24.5 24.2 16.5 61 4.9 ESE 13 20 7 11 1022.4 1022.4 0.2
16/02:30pm 24.6 24.6 17.1 63 4.6 ESE 13 20 7 11 1022.4 1022.4 0.2
16/02:00pm 24.7 24.6 16.9 62 4.8 ESE 13 22 7 12 1022.5 1022.5 0.2
16/01:30pm 25.7 26.3 18.6 65 4.5 SE 13 22 7 12 1022.5 1022.5 0.2
16/01:00pm 25.1 25.0 17.0 60 5.0 SE 13 20 7 11 1022.8 1022.8 0.2
16/12:30pm 25.3 24.8 15.9 56 5.7 SE 13 20 7 11 1023.3 1023.3 0.2
16/12:00pm 25.1 25.1 17.3 62 4.8 SE 13 24 7 13 1023.7 1023.7 0.2
16/11:30am 25.1 25.0 17.0 60 5.0 SE 13 22 7 12 1024.5 1024.5 0.2
16/11:00am 24.8 24.3 17.0 62 4.8 SE 15 24 8 13 1024.9 1024.9 0.2
16/10:30am 25.1 25.1 17.3 62 4.9 SSE 13 19 7 10 1025.3 1025.3 0.2
16/10:00am 24.9 25.6 17.9 65 4.4 SE 11 19 6 10 1025.6 1025.6 0.2
16/09:30am 24.5 25.1 17.7 66 4.2 SSE 11 17 6 9 1025.6 1025.6 0.0
16/09:00am 24.0 25.3 18.4 71 3.5 SSE 9 15 5 8 1025.6 1025.6 0.0
16/08:30am 23.4 24.8 18.7 75 3.0 SSW 9 13 5 7 1025.5 1025.5 0.0
16/08:00am 22.2 23.4 18.2 78 2.5 SSW 9 13 5 7 1025.3 1025.3 0.0
16/07:30am 21.0 22.1 18.0 83 1.9 S 9 15 5 8 1025.2 1025.2 0.0
16/07:00am 19.9 21.3 17.9 88 1.2 S 7 13 4 7 1025.0 1025.0 0.0
16/06:30am 18.9 20.6 18.1 95 0.5 SSW 6 9 3 5 1024.7 1024.7 0.0
16/06:00am 18.5 20.4 17.7 95 0.5 SSW 4 7 2 4 1024.5 1024.5 0.0
16/05:30am 18.5 20.8 17.7 95 0.5 SSW 2 7 1 4 1024.2 1024.2 0.0
16/05:00am 18.7 20.5 17.5 93 0.7 SW 4 7 2 4 1024.1 1024.1 0.0
16/04:30am 19.1 20.6 18.1 94 0.6 S 7 11 4 6 1024.0 1024.0 0.0
16/04:00am 18.6 19.8 17.3 92 0.8 ENE 7 15 4 8 1023.8 1023.8 0.0
16/03:30am 18.6 20.1 17.6 94 0.6 SSW 6 9 3 5 1023.6 1023.6 0.0
16/03:00am 18.4 20.9 17.2 93 0.7 CALM 0 6 0 3 1023.6 1023.6 0.0
16/02:30am 18.2 19.8 16.9 92 0.8 S 4 7 2 4 1023.6 1023.6 0.0
16/02:00am 18.4 20.7 16.7 90 1.0 CALM 0 0 0 0 1024.1 1024.1 0.0
16/01:30am 18.7 19.9 16.8 89 1.1 S 6 9 3 5 1024.2 1024.2 0.0
16/01:00am 18.9 20.8 16.7 87 1.3 S 2 6 1 3 1024.5 1024.5 0.0
16/12:30am 19.1 21.1 16.9 87 1.3 SSW 2 6 1 3 1024.8 1024.8 0.0
16/12:00am 19.1 20.5 16.5 85 1.6 SSW 4 7 2 4 1024.9 1024.9 0.0
 
Date/Time
EST
Temp
°C
App
Temp
°C
Dew
Point
Rel
Hum
%
Delta-T
°C
Wind Press
QNH
hPa
Press
MSL
hPa
Rain
since 9 am
mm
Dir
 
Spd
km/h
Gust
km/h
Spd
kts
Gust
kts
15/11:30pm 19.3 21.5 16.5 84 1.7 CALM 0 0 0 0 1024.9 1024.9 0.0
15/11:00pm 19.7 20.8 16.5 82 1.9 SSW 6 9 3 5 1025.0 1025.0 0.0
15/10:30pm 20.1 21.2 16.7 81 2.1 SSW 6 11 3 6 1025.1 1025.1 0.0
15/10:00pm 20.2 21.5 17.0 82 1.9 SSW 6 9 3 5 1025.2 1025.2 0.0
15/09:30pm 20.3 21.4 17.1 82 1.9 SSW 7 9 4 5 1025.2 1025.2 0.0
15/09:00pm 20.1 21.3 16.9 82 1.9 SSW 6 7 3 4 1025.1 1025.1 0.0
15/08:30pm 20.3 21.3 16.3 78 2.4 SW 6 7 3 4 1025.1 1025.1 0.0
15/08:00pm 20.7 22.9 16.5 77 2.5 CALM 0 0 0 0 1024.9 1024.9 0.0
15/07:30pm 21.2 22.2 16.4 74 2.9 SSW 6 9 3 5 1024.7 1024.7 0.0
15/07:00pm 21.9 22.7 16.4 71 3.3 S 7 9 4 5 1024.3 1024.3 0.0
15/06:30pm 22.3 23.0 16.1 68 3.7 S 7 9 4 5 1024.1 1024.1 0.0
15/06:00pm 22.8 23.2 15.4 63 4.4 SE 7 9 4 5 1023.9 1023.9 0.0
15/05:30pm 23.3 23.3 15.1 60 4.9 SE 9 15 5 8 1023.6 1023.6 0.0
15/05:00pm 23.7 23.4 15.5 60 4.9 SE 11 15 6 8 1023.3 1023.3 0.0
15/04:30pm 23.9 23.1 15.1 58 5.3 SE 13 20 7 11 1023.1 1023.1 0.0
15/04:00pm 24.1 23.5 15.6 59 5.1 ESE 13 24 7 13 1023.0 1023.0 0.0
15/03:30pm 24.3 23.0 15.8 59 5.1 ESE 17 26 9 14 1022.9 1022.9 0.0
15/03:00pm 24.7 24.3 16.2 59 5.2 SE 13 20 7 11 1022.9 1022.9 0.0
15/02:30pm 24.6 23.8 15.2 55 5.6 SE 13 22 7 12 1022.8 1022.8 0.0
15/02:00pm 24.9 23.9 15.5 56 5.7 ESE 15 22 8 12 1022.7 1022.7 0.0
15/01:30pm 25.0 24.8 16.7 60 5.1 ESE 13 20 7 11 1022.7 1022.7 0.0

Other Formats:

Comma delimited format used in spreadsheet applications
http://www.bom.gov.au/fwo/IDQ60801/IDQ60801.94570.axf

JavaScript Object Notation format (JSON) in row-major order
http://www.bom.gov.au/fwo/IDQ60801/IDQ60801.94570.json